Weather observations for the past three days for
Leesburg / Godfrey
Metric (Imperial)
Date Time (edt) Wind (kph) Vis. (km) Weather Sky Cond. Temperature (ºC) Relative Humidity Wind Chill (°C) Heat Index (°C) Pressure Precipitation (cm)
Air Dwpt 6 hour altimeter (cm) sea level (mb) 1 hr 3 hr 6 hr
Max. Min.
02 15:35 N 13 16.09 Overcast OVC070 14 2 44% 76 0.0
02 15:15 NW 13 16.09 Overcast OVC070 13 1 44% 76 0.0
02 14:55 NW 17 16.09 Overcast OVC070 13 1 44% 76.02 0.0
02 14:35 NW 9 16.09 Mostly Cloudy BKN070 13 0 41% 76.07 0.0
02 14:15 NW 13 G 20 16.09 Mostly Cloudy BKN070 13 0 41% 76.07 0.0
02 13:55 NW 13 16.09 Partly Cloudy SCT060 15 2 42% 76.07 0.0
02 13:35 NW 17 G 28 16.09 Partly Cloudy SCT060 14 2 44% 76.1 0.0
02 13:15 N 13 16.09 Partly Cloudy SCT055 13 1 44% 76.07 0.0
02 12:55 NW 9 16.09 Mostly Cloudy BKN055 13 2 47% 76.1 0.0
02 12:35 NW 17 16.09 Partly Cloudy SCT055 13 1 44% 76.12 0.0
02 12:15 W 17 16.09 Mostly Cloudy BKN055 12 1 47% 76.12 0.0
02 11:55 N 7 16.09 Partly Cloudy SCT049 12 2 51% 76.15 0.0
02 11:35 NW 17 16.09 Mostly Cloudy BKN047 11 2 54% 76.15 0.0
02 11:15 N 9 16.09 Partly Cloudy SCT045 11 2 54% 76.15 0.0
02 10:55 N 9 16.09 Fair CLR 11 2 54% 76.15 0.0
02 10:35 N 9 G 15 16.09 Fair CLR 11 2 54% 76.15 0.0
02 10:15 N 20 G 28 16.09 Fair CLR 11 2 54% 76.15 0.0
02 09:55 N 15 16.09 Fair CLR 10 2 58% 8 76.15 0.0
02 09:35 NW 19 16.09 Fair CLR 10 3 62% 8 76.15 0.0
02 09:15 NW 20 16.09 Fair CLR 9 2 62% 6 76.15 0.0
02 08:55 NW 28 G 35 16.09 Fair CLR 9 3 66% 6 76.15 0.0
02 08:35 N 17 16.09 Fair CLR 8 2 66% 6 76.17 0.0
02 08:15 NW 22 G 31 16.09 Fair CLR 8 2 66% 5 76.17 0.0
02 07:55 NW 19 G 30 16.09 Fair CLR 7 2 71% 4 76.2 0.0
02 07:35 NW 11 16.09 Fair CLR 7 2 71% 5 76.17 0.0
02 07:15 N 15 G 28 16.09 Fair CLR 7 2 71% 5 76.17 0.0
02 06:55 NW 17 16.09 Fair CLR 7 2 71% 4 76.15 0.0
02 06:35 NW 17 G 31 16.09 Partly Cloudy SCT090 7 2 71% 4 76.15 0.0
02 06:15 NW 24 16.09 Mostly Cloudy BKN090 8 3 71% 5 76.12 0.0
02 05:55 NW 19 G 28 16.09 Mostly Cloudy BKN090 8 3 71% 5 76.12 0.0
02 05:35 NW 22 16.09 Partly Cloudy SCT090 8 3 71% 5 76.1 0.0
02 05:15 NW 22 16.09 Partly Cloudy SCT085 9 3 66% 6 76.07 0.0
02 04:55 NW 19 16.09 Mostly Cloudy BKN085 9 3 66% 7 76.07 0.0
02 04:35 NW 17 G 28 16.09 Overcast OVC085 10 4 67% 8 76.1 0.0
02 04:15 NW 15 G 37 16.09 Overcast BKN085 OVC100 10 4 67% 8 76.07 0.0
02 03:55 NW 20 G 28 16.09 Overcast BKN085 OVC110 10 4 67% 8 76.05 0.0
02 03:35 NW 19 G 28 16.09 Overcast OVC085 11 5 67% 76.02 0.0
02 03:15 NW 26 16.09 Overcast OVC085 11 5 67% 76.02 0.0
02 02:55 NW 15 16.09 Overcast OVC085 12 6 67% 76.02 0.0
02 02:35 NW 19 16.09 Overcast BKN070 OVC085 12 6 67% 76.02 0.0
02 02:15 NW 13 16.09 Overcast OVC060 12 6 67% 76.02 0.0
02 01:55 NW 6 16.09 Overcast OVC060 12 6 67% 76.05 0.0
02 01:35 NW 9 16.09 Overcast OVC060 12 6 67% 76.05 0.0
02 01:15 NW 13 16.09 Overcast OVC060 12 6 67% 76.05 0.0
02 00:55 NW 19 16.09 Overcast OVC060 12 6 67% 76.05 0.0
02 00:35 NW 11 16.09 Overcast OVC060 12 7 72% 76.05 0.0
02 00:15 NW 9 16.09 Overcast OVC060 13 7 67% 76.02 0.0
01 23:55 N 7 16.09 Overcast OVC060 13 7 67% 76 0.0
01 23:35 N 9 16.09 Overcast OVC060 13 7 67% 76 0.0
01 23:15 N 9 16.09 Overcast OVC070 13 7 67% 75.97 0.0
01 22:55 NW 19 16.09 Light Rain OVC070 14 8 67% 75.97 0.0
01 22:35 NW 9 16.09 Overcast OVC070 15 7 59% 75.95 0.0
01 22:15 W 7 16.09 Overcast OVC070 15 6 55% 75.92 0.0
01 21:55 W 9 16.09 Overcast OVC080 15 6 55% 75.92 0.0
01 21:35 SW 13 16.09 Overcast SCT049 SCT060 OVC080 16 5 48% 75.9 0.0
01 21:15 Calm 16.09 Overcast SCT060 OVC080 17 5 45% 75.87 0.0
01 20:55 Calm 16.09 Overcast OVC080 17 3 39% 75.82 0.0
01 20:35 S 6 16.09 Overcast OVC080 18 3 37% 75.79 0.0
01 20:15 S 9 16.09 Overcast OVC090 18 3 37% 75.79 0.0
01 19:55 S 11 16.09 Overcast OVC090 18 3 37% 75.79 0.0
01 19:35 S 17 16.09 Overcast OVC090 18 4 40% 75.77 0.0
01 19:15 S 17 16.09 Overcast OVC090 18 4 40% 75.77 0.0
01 18:55 S 15 16.09 Overcast OVC090 18 4 40% 75.77 0.0
01 18:35 S 17 16.09 Overcast OVC100 19 4 37% 75.77 0.0
01 18:15 S 17 16.09 Overcast OVC110 19 4 37% 75.77 0.0
01 17:55 S 15 16.09 Mostly Cloudy BKN110 19 3 35% 75.79 0.0
01 17:35 S 22 G 35 16.09 Fair CLR 20 3 33% 75.79 0.0
01 17:15 S 19 G 26 16.09 Fair CLR 20 3 33% 75.79 0.0
01 16:55 S 15 G 31 16.09 Fair CLR 20 3 33% 75.82 0.0
01 16:35 S 24 G 31 16.09 Fair CLR 20 3 33% 75.82 0.0
01 16:15 S 28 G 39 16.09 Fair CLR 20 3 33% 75.84 0.0
01 15:55 S 19 G 33 16.09 Fair CLR 20 4 35% 75.87 0.0
01 15:35 S 24 G 37 16.09 Fair CLR 20 4 35% 75.9 0.0
01 15:15 S 19 G 26 16.09 Fair CLR 19 3 35% 75.92 0.0
01 14:55 S 17 16.09 Fair CLR 19 5 40% 75.95 0.0
01 14:35 S 15 G 30 16.09 Fair CLR 18 3 37% 75.95 0.0
01 13:55 S 17 16.09 Fair CLR 18 4 40% 76 0.0
01 13:35 S 15 16.09 Fair CLR 17 5 45% 76.02 0.0
01 13:15 SW 17 G 28 16.09 Fair CLR 18 5 43% 76.02 0.0
01 12:55 S 15 16.09 Fair CLR 17 3 39% 76.05 0.0
01 12:35 S 9 G 28 16.09 Fair CLR 16 3 42% 76.05 0.0
01 12:15 SW 9 16.09 Fair CLR 16 3 42% 76.07 0.0
01 11:55 SW 6 16.09 Fair CLR 15 4 48% 76.1 0.0
01 11:35 Calm 16.09 Fair CLR 14 2 44% 76.12 0.0
01 11:15 E 6 16.09 Fair CLR 15 3 45% 76.15 0.0
01 10:55 S 7 16.09 Fair CLR 14 3 48% 76.17 0.0
01 10:35 Calm 16.09 Fair CLR 13 2 47% 76.17 0.0
01 10:15 Calm 16.09 Fair CLR 12 2 51% 76.2 0.0
01 09:55 Calm 16.09 Fair CLR 13 3 51% 76.2 0.0
01 09:35 Calm 16.09 Fair CLR 12 4 58% 76.2 0.0
01 09:15 Calm 16.09 Fair CLR 11 4 62% 76.2 0.0
01 08:55 NW 6 16.09 Fair CLR 11 5 67% 76.2 0.0
01 08:35 NW 6 16.09 Fair CLR 10 5 71% 76.23 0.0
01 08:15 N 6 16.09 Fair CLR 8 5 82% 76.23 0.0
01 07:55 N 6 16.09 Fair CLR 8 4 76% 76.23 0.0
01 07:35 Calm 16.09 Fair CLR 7 4 81% 76.23 0.0
01 07:15 Calm 16.09 Fair CLR 6 4 87% 76.23 0.0
01 06:55 Calm 16.09 Fair CLR 6 4 87% 76.2 0.0
01 06:35 Calm 16.09 Fair CLR 6 3 81% 76.2 0.0
01 06:15 Calm 16.09 Fair CLR 6 3 81% 76.2 0.0
01 05:55 Calm 16.09 Fair CLR 5 3 87% 76.2 0.0
01 05:35 Calm 16.09 Fair CLR 6 3 81% 76.2 0.0
01 05:15 W 7 16.09 Fair CLR 5 3 87% 4 76.2 0.0
01 04:55 W 7 16.09 Fair CLR 3 2 93% 1 76.2 0.0
01 04:35 W 7 16.09 Fair CLR 4 3 93% 2 76.17 0.0
01 04:15 W 7 16.09 Fair CLR 4 3 93% 2 76.2 0.0
01 03:55 W 7 16.09 Fair CLR 5 3 87% 4 76.17 0.0
01 03:35 W 6 16.09 Fair CLR 5 3 87% 76.17 0.0
01 03:15 W 9 16.09 Fair CLR 5 3 87% 3 76.15 0.0
01 02:55 W 11 16.09 Fair CLR 5 3 87% 3 76.15 0.0
01 02:35 W 11 16.09 Fair CLR 5 3 87% 3 76.15 0.0
01 02:15 W 11 16.09 Fair CLR 5 3 87% 3 76.15 0.0
01 01:55 NW 11 16.09 Fair CLR 5 3 87% 3 76.17 0.0
01 01:35 NW 7 16.09 Fair CLR 6 3 81% 5 76.17 0.0
01 01:15 W 6 16.09 Fair CLR 6 3 81% 76.17 0.0
01 00:55 Calm 16.09 Fair CLR 7 3 76% 76.17 0.0
01 00:35 Calm 16.09 Fair CLR 7 4 81% 76.17 0.0
01 00:15 Calm 16.09 Fair CLR 7 3 76% 76.15 0.0
30 23:55 Calm 16.09 Fair CLR 8 3 71% 76.15 0.0
30 23:35 Calm 16.09 Fair CLR 8 3 71% 76.12 0.0
30 23:15 NW 11 16.09 Fair CLR 8 3 71% 6 76.12 0.0
30 22:55 Calm 16.09 Fair CLR 9 3 66% 76.12 0.0
30 22:35 NW 17 16.09 Fair CLR 10 3 62% 8 76.1 0.0
30 22:15 NW 13 16.09 Fair CLR 9 3 66% 7 76.12 0.0
30 21:55 NW 6 16.09 Fair CLR 10 3 62% 76.12 0.0
30 21:35 NW 6 16.09 Fair CLR 10 3 62% 76.1 0.0
30 21:15 NW 9 16.09 Fair CLR 11 3 58% 76.07 0.0
30 20:55 NW 17 16.09 Fair CLR 11 3 58% 76.05 0.0
30 20:35 NW 15 G 28 16.09 Fair CLR 11 3 58% 76.02 0.0
30 20:15 NW 28 G 33 16.09 Fair CLR 12 3 54% 76 0.0
30 19:55 NW 20 16.09 Fair CLR 12 4 58% 76 0.0
30 19:35 NW 33 G 43 16.09 Partly Cloudy and Breezy SCT050 13 5 59% 75.95 0.0
30 19:15 NW 24 G 43 16.09 Mostly Cloudy BKN050 14 5 55% 75.95 0.0
30 18:55 NW 33 G 43 16.09 Partly Cloudy and Breezy SCT048 15 6 55% 75.9 0.0
30 18:35 NW 30 G 46 16.09 Partly Cloudy SCT055 SCT070 15 6 55% 75.87 0.0
30 18:15 NW 22 G 46 16.09 Mostly Cloudy BKN055 16 6 52% 75.87 0.0
30 17:55 W 26 G 37 16.09 Fair CLR 16 6 52% 75.82 0.0
30 17:35 W 24 G 44 16.09 Fair CLR 17 6 49% 75.82 0.0
30 17:15 NW 28 G 39 16.09 Fair CLR 17 6 49% 75.79 0.0
30 16:55 W 33 G 46 16.09 Fair and Breezy CLR 18 6 46% 75.77 0.0
30 16:35 NW 30 G 41 16.09 Partly Cloudy SCT075 18 6 46% 75.74 0.0
30 16:15 NW 30 G 43 16.09 Partly Cloudy SCT075 19 5 40% 75.72 0.0
30 15:55 NW 28 G 41 16.09 Partly Cloudy SCT075 18 5 43% 75.69 0.0
30 15:35 W 26 G 37 16.09 Mostly Cloudy BKN075 18 5 43% 75.69 0.0
30 15:15 NW 20 G 48 16.09 Partly Cloudy SCT075 19 5 40% 75.69 0.0
30 14:55 W 30 G 41 16.09 Partly Cloudy SCT065 18 5 43% 75.69 0.0
30 14:35 NW 30 G 43 16.09 Mostly Cloudy BKN065 18 5 43% 75.72 0.0
30 14:15 W 24 G 35 16.09 Partly Cloudy SCT065 19 6 43% 75.69 0.0
30 13:55 W 19 G 41 16.09 Partly Cloudy SCT065 18 6 46% 75.69 0.0
30 13:35 W 28 G 35 16.09 Mostly Cloudy BKN055 18 6 46% 75.72 0.0
30 13:15 NW 20 G 43 16.09 Mostly Cloudy SCT055 BKN065 18 8 52% 75.72 0.0
30 12:55 NW 28 G 35 16.09 Mostly Cloudy BKN060 18 7 49% 75.74 0.0
30 12:35 W 26 G 39 16.09 Partly Cloudy SCT060 17 6 49% 75.74 0.0
30 12:15 NW 31 G 44 16.09 Partly Cloudy SCT060 18 7 49% 75.77 0.0
30 11:55 W 26 G 46 16.09 Partly Cloudy SCT060 18 6 46% 75.77 0.0
30 11:35 NW 28 G 41 16.09 Partly Cloudy SCT050 17 7 52% 75.77 0.0
30 11:15 NW 30 G 37 16.09 Mostly Cloudy BKN050 BKN060 17 8 56% 75.77 0.0
30 10:55 NW 20 G 30 16.09 Mostly Cloudy SCT048 BKN050 BKN075 16 8 59% 75.79 0.0
30 10:35 NW 17 G 26 16.09 Mostly Cloudy SCT047 BKN050 BKN075 16 8 59% 75.79 0.0
30 10:15 NW 26 G 37 16.09 Partly Cloudy SCT055 16 7 55% 75.82 0.0
30 09:55 NW 28 16.09 Fair CLR 16 9 63% 75.79 0.0
30 09:35 NW 26 G 35 16.09 Fair CLR 15 9 68% 75.79 0.0
30 09:15 NW 15 16.09 Fair CLR 15 9 68% 75.77 0.0
30 08:55 NW 26 G 35 16.09 Fair CLR 15 9 68% 75.77 0.0
30 08:35 NW 19 G 26 16.09 Fair CLR 14 10 77% 75.74 0.0
30 08:15 NW 11 16.09 Fair CLR 13 11 88% 75.77 0.0
30 07:55 NW 9 16.09 Fair CLR 12 11 94% 75.77 0.0
30 07:35 W 6 16.09 Fair CLR 11 10 94% 75.77 0.0
30 07:15 W 9 16.09 Fair CLR 11 11 100% 75.77 0.0
30 06:55 W 9 16.09 Fair CLR 11 10 94% 75.74 0.0
30 06:35 W 9 16.09 Fair CLR 11 10 94% 75.72 0.0
30 06:15 NW 11 16.09 Fair CLR 11 10 94% 75.67 0.0
30 05:55 NW 7 16.09 Fair CLR 10 10 100% 9 75.67 0.0
30 05:35 W 7 16.09 Fair CLR 10 10 100% 9 75.67 0.0
30 05:15 NW 7 16.09 Fair CLR 10 10 100% 9 75.67 0.0
30 04:55 W 7 16.09 Fair CLR 10 10 100% 9 75.69 0.0
30 04:35 W 9 16.09 Fair CLR 11 11 100% 75.67 0.0
30 04:15 Calm 16.09 Fair CLR 11 11 100% 75.64 0.0
30 03:55 Calm 16.09 Fair CLR 11 11 100% 75.62 0.0
30 03:35 NW 7 16.09 Fair CLR 12 12 100% 75.62 0.0
30 03:15 W 15 16.09 Fair CLR 12 12 100% 75.59 0.0
30 02:55 NW 22 16.09 Fair CLR 12 12 100% 75.59 0.0
30 02:35 NW 19 16.09 Fair CLR 12 12 100% 75.59 0.0
30 02:15 NW 13 2.01 Fog/Mist SCT001 12 12 100% 75.59 0.0
30 01:55 NW 6 0.80 Fog OVC001 12 12 100% 75.62 0.0
30 01:35 Calm 0.40 Fog OVC001 12 12 100% 75.62 0.0
30 01:15 Calm 0.40 Fog OVC001 12 12 100% 75.62 0.0
30 00:55 Calm 0.40 Fog OVC003 13 13 100% 75.62 0.0
30 00:35 Calm 8.05 Fog/Mist BKN005 14 14 100% 75.62 0.0
30 00:15 Calm 11.27 Overcast OVC005 14 14 100% 75.62 0.0
29 23:55 Calm 4.83 Fog/Mist OVC005 13 13 100% 75.62 0.0
29 23:35 Calm 11.27 Overcast BKN007 OVC012 13 13 100% 75.59 0.0
29 23:15 E 6 11.27 Partly Cloudy SCT009 SCT014 13 13 100% 75.59 0.0
29 22:55 E 6 11.27 Mostly Cloudy BKN007 BKN015 BKN021 14 14 100% 75.62 0.0
29 22:35 Calm 16.09 Light Rain SCT005 BKN013 OVC021 15 15 100% 75.64 0.0
29 22:15 Calm 16.09 Overcast BKN007 BKN011 OVC016 15 15 100% 75.64 0.0
29 21:55 Calm 16.09 Light Rain BKN007 BKN010 OVC017 15 15 100% 75.64 0.0 0.36
29 21:35 SW 9 6.44 Light Rain BKN007 BKN016 OVC060 15 15 100% 75.64 0.0 0.3
29 21:15 S 13 8.05 Heavy Rain BKN005 OVC011 15 15 100% 75.62 0.0 0.1
29 20:55 S 13 11.27 Rain BKN005 BKN011 OVC020 15 15 100% 75.59 0.0 0.18
29 20:35 SE 15 16.09 Light Rain SCT005 BKN011 OVC020 15 15 100% 75.57 0.0 0.15
29 20:15 S 17 8.05 Heavy Rain OVC007 15 15 100% 75.57 0.0 0.08
29 19:55 SE 13 16.09 Overcast OVC007 15 15 100% 75.57 0.0
29 19:35 SE 13 16.09 Overcast SCT007 BKN011 OVC020 15 15 100% 75.57 0.0
29 19:15 SE 19 16.09 Overcast BKN007 BKN014 OVC022 15 15 100% 75.57 0.0
29 18:55 SE 17 16.09 Overcast SCT005 BKN014 OVC100 15 15 100% 75.59 0.0 0.1
29 18:35 SE 19 G 26 11.27 Light Rain SCT015 BKN050 OVC100 14 14 100% 75.57 0.0 0.1
29 18:15 SE 13 11.27 Light Rain SCT034 BKN049 OVC060 14 14 100% 75.62 0.0 0.05
29 17:55 S 15 4.83 Rain SCT009 BKN047 OVC075 14 14 100% 75.67 0.0 0.58
29 17:35 SE 15 4.83 Rain SCT015 BKN023 OVC055 14 14 100% 75.69 0.0 0.33
29 17:15 S 13 8.05 Rain SCT011 OVC017 14 14 100% 75.69 0.0 0.05
29 16:55 S 15 11.27 Light Rain BKN011 OVC017 15 15 100% 75.69 0.0 0.05
29 16:35 SE 11 16.09 Light Rain OVC009 15 15 100% 75.69 0.0 0.03
29 16:15 SE 15 16.09 Light Rain OVC009 15 15 100% 75.69 0.0
29 15:55 SE 17 16.09 Overcast OVC009 15 15 100% 75.69 0.0
Date Time (edt) Wind (kph) Vis. (km) Weather Sky Cond. Air Dwpt Max. Min. Relative Humidity Wind Chill (°C) Heat Index (°C) altimeter (cm) sea level (mb) 1 hr 3 hr 6 hr
6 hour
Temperature (ºC) Pressure Precipitation (cm)